Time;durP1;ratioP1;P1;durP2;ratioP2;P2;SDS_P1;SDS_P2;PMS_P1;PMS_P2;Temp;Humidity;BMP_temperature;BMP_pressure;BME280_temperature;BME280_humidity;BME280_pressure;Samples;Min_cycle;Max_cycle;Signal;HPM_P1;HPM_P2
2022/03/10 00:00:21;;;;;;;7.65;6.85;;;3.50;99.90;;;;;;4922002;29;20233;-70
2022/03/10 00:02:49;;;;;;;9.13;6.97;;;3.50;99.90;;;;;;4922214;29;20247;-70
2022/03/10 00:05:19;;;;;;;10.10;7.13;;;3.50;99.90;;;;;;4921724;29;20252;-72
2022/03/10 00:07:47;;;;;;;7.05;5.78;;;3.50;99.90;;;;;;4921968;29;20251;-71
2022/03/10 00:10:15;;;;;;;8.18;5.68;;;3.50;99.90;;;;;;4921881;29;20351;-71
2022/03/10 00:12:51;;;;;;;8.07;5.75;;;3.50;99.90;;;;;;4922175;29;20217;-71
2022/03/10 00:15:21;;;;;;;8.48;6.68;;;3.50;99.90;;;;;;4921545;29;20233;-71
2022/03/10 00:17:49;;;;;;;7.18;5.75;;;3.50;99.90;;;;;;4922207;29;20194;-71
2022/03/10 00:20:17;;;;;;;8.98;6.07;;;3.50;99.90;;;;;;4921598;29;20308;-71
2022/03/10 00:22:48;;;;;;;7.15;6.00;;;3.40;99.90;;;;;;4921622;29;20229;-71
2022/03/10 00:25:17;;;;;;;9.43;6.40;;;3.40;99.90;;;;;;4922363;29;20220;-71
2022/03/10 00:27:46;;;;;;;6.32;5.47;;;3.40;99.90;;;;;;4921862;29;20775;-71
2022/03/10 00:30:15;;;;;;;9.13;6.38;;;3.40;99.90;;;;;;4921892;29;20240;-71
2022/03/10 00:32:49;;;;;;;7.68;6.10;;;3.30;99.90;;;;;;4922097;29;20236;-71
2022/03/10 00:35:19;;;;;;;9.82;6.30;;;3.30;99.90;;;;;;4920982;29;20305;-72
2022/03/10 00:37:55;;;;;;;11.05;7.25;;;3.30;99.90;;;;;;4921732;29;20209;-72
2022/03/10 00:40:23;;;;;;;10.48;7.50;;;3.30;99.90;;;;;;4921199;29;20225;-74
2022/03/10 00:42:51;;;;;;;9.90;6.30;;;3.20;99.90;;;;;;4922690;29;20206;-72
2022/03/10 00:45:20;;;;;;;9.98;6.90;;;3.20;99.90;;;;;;4923025;29;20688;-72
2022/03/10 00:47:51;;;;;;;9.48;6.60;;;3.20;99.90;;;;;;4921459;29;20281;-72
2022/03/10 00:50:20;;;;;;;6.38;5.43;;;3.10;99.90;;;;;;4921729;29;20232;-70
2022/03/10 00:52:48;;;;;;;9.15;6.95;;;3.10;99.90;;;;;;4922053;29;20217;-67
2022/03/10 00:55:18;;;;;;;8.30;6.53;;;3.00;99.90;;;;;;4921647;29;20213;-69
2022/03/10 00:57:46;;;;;;;9.23;6.60;;;3.00;99.90;;;;;;4922065;29;20236;-69
2022/03/10 01:00:15;;;;;;;10.93;8.13;;;2.90;99.90;;;;;;4921714;29;20234;-69
2022/03/10 01:02:44;;;;;;;9.25;7.00;;;3.00;99.90;;;;;;4921442;29;20854;-69
2022/03/10 01:05:13;;;;;;;11.93;8.30;;;2.90;99.90;;;;;;4921765;29;20237;-70
2022/03/10 01:07:41;;;;;;;10.25;6.70;;;2.80;99.90;;;;;;4921001;29;20223;-70
2022/03/10 01:10:13;;;;;;;9.60;7.53;;;2.80;99.90;;;;;;4921360;29;20866;-69
2022/03/10 01:12:42;;;;;;;8.35;6.25;;;2.80;99.90;;;;;;4921456;29;20205;-69
2022/03/10 01:15:14;;;;;;;13.30;7.38;;;2.70;99.90;;;;;;4921281;29;20206;-69
2022/03/10 01:17:43;;;;;;;8.40;6.47;;;2.70;99.90;;;;;;4924363;29;20208;-69
2022/03/10 01:20:14;;;;;;;9.85;8.85;;;2.60;99.90;;;;;;4926044;29;20259;-68
2022/03/10 01:22:42;;;;;;;10.23;8.15;;;2.60;99.90;;;;;;4924909;29;20220;-68
2022/03/10 01:25:11;;;;;;;8.10;6.40;;;2.50;99.90;;;;;;4924722;29;20228;-71
2022/03/10 01:27:40;;;;;;;9.25;7.10;;;2.50;99.90;;;;;;4924052;29;20225;-70
2022/03/10 01:30:09;;;;;;;7.85;5.70;;;2.50;99.90;;;;;;4924626;29;20782;-70
2022/03/10 01:32:37;;;;;;;7.57;6.75;;;2.50;99.90;;;;;;4925188;29;20205;-70
2022/03/10 01:35:08;;;;;;;9.90;6.90;;;2.50;99.90;;;;;;4924561;29;20198;-70
2022/03/10 01:37:37;;;;;;;10.73;7.70;;;2.50;99.90;;;;;;4925212;29;20212;-71
2022/03/10 01:40:06;;;;;;;10.93;7.28;;;2.40;99.90;;;;;;4924124;29;20891;-69
2022/03/10 01:42:35;;;;;;;9.48;6.55;;;2.40;99.90;;;;;;4924483;29;20310;-69
2022/03/10 01:45:03;;;;;;;10.15;6.93;;;2.40;99.90;;;;;;4924130;29;20228;-71
2022/03/10 01:47:31;;;;;;;11.55;7.30;;;2.30;99.90;;;;;;4924469;29;20277;-70
2022/03/10 01:49:59;;;;;;;9.85;7.90;;;2.30;99.90;;;;;;4925269;29;20263;-71
2022/03/10 01:52:28;;;;;;;10.35;7.18;;;2.30;99.90;;;;;;4924431;29;20210;-70
2022/03/10 01:54:57;;;;;;;9.73;8.60;;;2.30;99.90;;;;;;4924145;29;20247;-70
2022/03/10 01:57:25;;;;;;;10.77;7.50;;;2.30;99.90;;;;;;4924346;29;20248;-69
2022/03/10 01:59:55;;;;;;;9.15;7.22;;;2.30;99.90;;;;;;4923975;29;20225;-69
2022/03/10 02:02:23;;;;;;;10.70;7.25;;;2.30;99.90;;;;;;4923838;29;20841;-72
2022/03/10 02:04:52;;;;;;;13.85;7.60;;;2.30;99.90;;;;;;4923788;29;20230;-70
2022/03/10 02:10:17;;;;;;;10.80;8.02;;;2.20;99.90;;;;;;4901799;29;20232;-69
2022/03/10 02:12:47;;;;;;;7.85;6.82;;;2.20;99.90;;;;;;4923547;29;20216;-69
2022/03/10 02:18:02;;;;;;;11.20;7.57;;;2.10;99.90;;;;;;4924319;29;20206;-69
2022/03/10 02:20:31;;;;;;;8.32;7.13;;;2.10;99.90;;;;;;4924180;29;20746;-68
2022/03/10 02:23:00;;;;;;;8.77;6.75;;;2.10;99.90;;;;;;4924029;29;20207;-67
2022/03/10 02:25:28;;;;;;;9.60;6.90;;;2.10;99.90;;;;;;4923535;29;20855;-69
2022/03/10 02:27:57;;;;;;;10.27;7.95;;;2.00;99.90;;;;;;4922775;29;20212;-69
2022/03/10 02:30:28;;;;;;;8.20;7.40;;;2.00;99.90;;;;;;4922406;29;20236;-69
2022/03/10 02:32:56;;;;;;;11.32;8.38;;;2.00;99.90;;;;;;4924036;29;20216;-69
2022/03/10 02:35:24;;;;;;;10.80;7.82;;;2.00;99.90;;;;;;4923578;29;20202;-69
2022/03/10 02:37:52;;;;;;;11.40;8.07;;;1.90;99.90;;;;;;4923457;29;20210;-67
2022/03/10 02:40:22;;;;;;;11.98;7.78;;;1.90;99.90;;;;;;4923089;29;20285;-68
2022/03/10 02:42:50;;;;;;;12.50;8.40;;;1.90;99.90;;;;;;4923534;29;20241;-66
2022/03/10 02:45:17;;;;;;;10.98;8.20;;;1.90;99.90;;;;;;4923281;29;20234;-68
2022/03/10 02:47:45;;;;;;;9.25;6.70;;;1.90;99.90;;;;;;4923631;29;20194;-69
2022/03/10 02:50:13;;;;;;;11.27;7.82;;;1.90;99.90;;;;;;4923307;29;20222;-68
2022/03/10 02:52:44;;;;;;;11.40;7.80;;;1.80;99.90;;;;;;4923143;29;20217;-67
2022/03/10 02:55:12;;;;;;;12.27;8.00;;;1.80;99.90;;;;;;4923047;29;20859;-69
2022/03/10 02:57:41;;;;;;;10.02;7.40;;;1.80;99.90;;;;;;4922459;29;20208;-67
2022/03/10 03:00:10;;;;;;;12.23;8.15;;;1.80;99.90;;;;;;4923350;29;20235;-69
2022/03/10 03:02:39;;;;;;;13.18;9.77;;;1.70;99.90;;;;;;4922827;29;20201;-69
2022/03/10 03:05:08;;;;;;;12.43;7.53;;;1.70;99.90;;;;;;4922834;29;20248;-68
2022/03/10 03:07:36;;;;;;;9.88;7.55;;;1.70;99.90;;;;;;4923018;29;20697;-69
2022/03/10 03:10:04;;;;;;;12.93;8.45;;;1.70;99.90;;;;;;4923057;29;20229;-69
2022/03/10 03:12:32;;;;;;;12.02;8.48;;;1.70;99.90;;;;;;4922759;29;20368;-68
2022/03/10 03:15:01;;;;;;;12.73;8.65;;;1.70;99.90;;;;;;4922682;29;20198;-72
2022/03/10 03:17:29;;;;;;;11.32;7.95;;;1.80;99.90;;;;;;4922817;29;20273;-72
2022/03/10 03:19:57;;;;;;;10.95;8.48;;;1.70;99.90;;;;;;4922807;29;20268;-71
2022/03/10 03:22:25;;;;;;;14.02;8.70;;;1.70;99.90;;;;;;4922451;29;20216;-71
2022/03/10 03:24:53;;;;;;;11.68;8.02;;;1.70;99.90;;;;;;4922410;29;20261;-72
2022/03/10 03:27:21;;;;;;;13.20;9.40;;;1.70;99.90;;;;;;4922656;29;20251;-73
2022/03/10 03:29:49;;;;;;;12.30;8.43;;;1.60;99.90;;;;;;4922534;29;20254;-73
2022/03/10 03:32:18;;;;;;;16.60;8.45;;;1.60;99.90;;;;;;4922320;29;20201;-73
2022/03/10 03:34:46;;;;;;;13.20;8.77;;;1.60;99.90;;;;;;4922208;29;20198;-73
2022/03/10 03:37:14;;;;;;;13.95;8.75;;;1.60;99.90;;;;;;4922594;29;20840;-72
2022/03/10 03:39:42;;;;;;;9.93;8.18;;;1.60;99.90;;;;;;4922492;29;20226;-73
2022/03/10 03:42:09;;;;;;;11.35;8.55;;;1.60;99.90;;;;;;4921929;29;20225;-71
2022/03/10 03:44:37;;;;;;;10.98;8.48;;;1.60;99.90;;;;;;4922431;29;20225;-71
2022/03/10 03:47:08;;;;;;;11.57;8.43;;;1.50;99.90;;;;;;4922327;29;20241;-73
2022/03/10 03:49:37;;;;;;;12.38;8.52;;;1.50;99.90;;;;;;4922626;29;20230;-72
2022/03/10 03:52:06;;;;;;;10.88;7.95;;;1.50;99.90;;;;;;4922601;29;20206;-72
2022/03/10 03:54:33;;;;;;;12.40;8.13;;;1.50;99.90;;;;;;4922001;29;20201;-71
2022/03/10 03:57:01;;;;;;;15.35;9.40;;;1.50;99.90;;;;;;4922176;29;20212;-71
2022/03/10 03:59:29;;;;;;;14.05;8.90;;;1.50;99.90;;;;;;4922464;29;20225;-71
2022/03/10 04:01:57;;;;;;;15.73;9.20;;;1.50;99.90;;;;;;4926537;29;20414;-71
2022/03/10 04:04:25;;;;;;;18.02;9.90;;;1.50;99.90;;;;;;4932891;29;20298;-72
2022/03/10 04:06:54;;;;;;;14.30;9.25;;;1.50;99.90;;;;;;4932070;29;20234;-71
2022/03/10 04:09:22;;;;;;;13.77;8.88;;;1.40;99.90;;;;;;4921230;29;20313;-70
2022/03/10 04:11:50;;;;;;;14.00;9.43;;;1.40;99.90;;;;;;4937020;29;20263;-72
2022/03/10 04:14:19;;;;;;;13.30;8.48;;;1.50;99.90;;;;;;4940704;29;20592;-71
2022/03/10 04:16:47;;;;;;;12.60;8.55;;;1.50;99.90;;;;;;4940633;29;20205;-71
2022/03/10 04:19:18;;;;;;;13.68;8.88;;;1.50;99.90;;;;;;4941027;28;20225;-70
2022/03/10 04:21:46;;;;;;;12.55;9.18;;;1.50;99.90;;;;;;4940471;29;20231;-71
2022/03/10 04:24:15;;;;;;;11.77;8.85;;;1.40;99.90;;;;;;4940911;29;20219;-71
2022/03/10 04:26:43;;;;;;;14.15;9.00;;;1.40;99.90;;;;;;4940868;29;20227;-70
2022/03/10 04:29:11;;;;;;;14.68;9.57;;;1.40;99.90;;;;;;4940522;28;20229;-70
2022/03/10 04:31:39;;;;;;;15.48;9.55;;;1.40;99.90;;;;;;4941024;29;20220;-70
2022/03/10 04:34:07;;;;;;;12.38;7.65;;;1.40;99.90;;;;;;4941620;28;20260;-71
2022/03/10 04:36:35;;;;;;;17.73;9.65;;;1.40;99.90;;;;;;4941025;29;20208;-71
2022/03/10 04:39:03;;;;;;;12.55;8.60;;;1.40;99.90;;;;;;4940998;28;20223;-70
2022/03/10 04:41:34;;;;;;;15.45;9.52;;;1.40;99.90;;;;;;4940459;29;20201;-72
2022/03/10 04:44:01;;;;;;;15.35;8.95;;;1.40;99.90;;;;;;4940990;28;20185;-71
2022/03/10 04:46:29;;;;;;;15.00;9.82;;;1.40;99.90;;;;;;4940296;28;20225;-71
2022/03/10 04:48:57;;;;;;;14.15;8.85;;;1.40;99.90;;;;;;4940843;28;20209;-71
2022/03/10 04:51:26;;;;;;;13.15;8.93;;;1.30;99.90;;;;;;4940791;28;20696;-71
2022/03/10 04:53:54;;;;;;;15.65;9.88;;;1.30;99.90;;;;;;4944204;29;20292;-70
2022/03/10 04:56:22;;;;;;;14.50;9.32;;;1.30;99.90;;;;;;4944473;29;20223;-70
2022/03/10 04:58:51;;;;;;;12.63;9.15;;;1.30;99.90;;;;;;4944651;28;20213;-70
2022/03/10 05:01:19;;;;;;;14.10;10.10;;;1.20;99.90;;;;;;4944490;29;20201;-70
2022/03/10 05:03:47;;;;;;;16.13;10.10;;;1.20;99.90;;;;;;4943458;29;20689;-70
2022/03/10 05:06:15;;;;;;;15.32;10.50;;;1.20;99.90;;;;;;4944225;29;20225;-70
2022/03/10 05:08:42;;;;;;;14.27;9.45;;;1.10;99.90;;;;;;4943580;29;20700;-70
2022/03/10 05:11:10;;;;;;;14.02;9.35;;;1.10;99.90;;;;;;4943836;29;20208;-70
2022/03/10 05:13:38;;;;;;;14.32;9.52;;;1.00;99.90;;;;;;4943898;29;20213;-70
2022/03/10 05:16:07;;;;;;;17.98;10.50;;;1.00;99.90;;;;;;4943426;29;20201;-71
2022/03/10 05:18:35;;;;;;;14.52;9.80;;;1.00;99.90;;;;;;4943567;29;20693;-70
2022/03/10 05:21:03;;;;;;;14.50;10.15;;;1.00;99.90;;;;;;4943867;28;20220;-70
2022/03/10 05:23:31;;;;;;;17.80;10.77;;;0.90;99.90;;;;;;4943835;29;20216;-70
2022/03/10 05:25:58;;;;;;;17.90;10.38;;;0.90;99.90;;;;;;4943527;29;20228;-71
2022/03/10 05:28:26;;;;;;;14.75;9.80;;;0.90;99.90;;;;;;4943566;29;20209;-71
2022/03/10 05:30:54;;;;;;;17.98;10.05;;;0.90;99.90;;;;;;4943803;28;20259;-70
2022/03/10 05:33:23;;;;;;;17.98;10.85;;;0.90;99.90;;;;;;4943181;29;20205;-71
2022/03/10 05:35:51;;;;;;;14.45;10.40;;;0.90;99.90;;;;;;4943425;29;20209;-69
2022/03/10 05:38:19;;;;;;;14.48;10.82;;;0.90;99.90;;;;;;4942971;29;20220;-69
2022/03/10 05:40:46;;;;;;;17.90;11.38;;;0.90;99.90;;;;;;4943620;28;20233;-68
2022/03/10 05:43:14;;;;;;;17.02;11.07;;;0.90;99.90;;;;;;4942824;29;20209;-68
2022/03/10 05:45:42;;;;;;;15.57;10.77;;;0.90;99.90;;;;;;4942858;28;20221;-68
2022/03/10 05:48:10;;;;;;;14.57;9.95;;;0.90;99.90;;;;;;4942857;29;20235;-68
2022/03/10 05:50:39;;;;;;;17.20;10.98;;;0.90;99.90;;;;;;4943102;28;20358;-69
2022/03/10 05:53:07;;;;;;;20.15;11.25;;;0.90;99.90;;;;;;4943240;29;20209;-70
2022/03/10 05:55:35;;;;;;;18.13;11.85;;;0.90;99.90;;;;;;4942919;28;20217;-71
2022/03/10 05:58:04;;;;;;;20.83;11.13;;;0.90;99.90;;;;;;4943142;28;20201;-70
2022/03/10 06:00:32;;;;;;;16.65;10.80;;;0.90;99.90;;;;;;4943435;28;20225;-75
2022/03/10 06:03:00;;;;;;;19.33;10.65;;;0.90;99.90;;;;;;4942208;28;20228;-71
2022/03/10 06:05:28;;;;;;;20.05;11.90;;;0.90;99.90;;;;;;4942838;29;20776;-69
2022/03/10 06:07:58;;;;;;;18.58;11.80;;;0.90;99.90;;;;;;4942691;29;20233;-71
2022/03/10 06:10:26;;;;;;;16.25;10.27;;;0.90;99.90;;;;;;4943452;28;20323;-71
2022/03/10 06:12:54;;;;;;;19.05;12.07;;;1.00;99.90;;;;;;4943089;29;20213;-69
2022/03/10 06:15:21;;;;;;;21.08;12.50;;;1.00;99.90;;;;;;4942884;28;20215;-70
2022/03/10 06:17:51;;;;;;;19.95;11.45;;;1.00;99.90;;;;;;4942440;29;20216;-70
2022/03/10 06:20:19;;;;;;;17.52;10.90;;;1.00;99.90;;;;;;4942879;28;20217;-71
2022/03/10 06:22:47;;;;;;;16.42;10.48;;;1.10;99.90;;;;;;4942656;29;20243;-71
2022/03/10 06:25:16;;;;;;;17.95;11.23;;;1.10;99.90;;;;;;4943949;29;20717;-70
2022/03/10 06:27:44;;;;;;;19.45;10.93;;;1.10;99.90;;;;;;4942953;29;20221;-70
2022/03/10 06:30:13;;;;;;;20.17;12.05;;;1.10;99.90;;;;;;4942742;28;20229;-70
2022/03/10 06:32:41;;;;;;;19.55;12.02;;;1.10;99.90;;;;;;4942443;29;20822;-70
2022/03/10 06:35:11;;;;;;;25.83;13.43;;;1.20;99.90;;;;;;4938535;29;20213;-70
2022/03/10 06:37:43;;;;;;;20.88;12.55;;;1.20;99.90;;;;;;4942261;29;20201;-70
2022/03/10 06:40:13;;;;;;;18.92;11.80;;;1.30;99.90;;;;;;4941331;29;20225;-69
2022/03/10 06:42:43;;;;;;;18.30;12.20;;;1.30;99.90;;;;;;4941870;29;20874;-69
2022/03/10 06:45:14;;;;;;;23.83;12.40;;;1.40;99.90;;;;;;4942069;29;20189;-70
2022/03/10 06:47:42;;;;;;;19.27;12.13;;;1.40;99.90;;;;;;4942580;29;20228;-67
2022/03/10 06:50:10;;;;;;;21.00;12.23;;;1.40;99.90;;;;;;4942060;29;20320;-68
2022/03/10 06:52:38;;;;;;;20.17;12.40;;;1.50;99.90;;;;;;4941929;28;20205;-68
2022/03/10 06:55:07;;;;;;;15.75;11.90;;;1.60;99.90;;;;;;4941721;29;20685;-68
2022/03/10 06:57:35;;;;;;;22.50;12.13;;;1.70;99.90;;;;;;4942162;28;20212;-68
2022/03/10 07:00:06;;;;;;;21.85;11.80;;;1.80;99.90;;;;;;4941422;28;20221;-68
2022/03/10 07:02:34;;;;;;;16.00;10.70;;;1.80;99.90;;;;;;4941717;29;20205;-68
2022/03/10 07:05:03;;;;;;;19.50;11.50;;;1.80;99.90;;;;;;4940947;29;20205;-68
2022/03/10 07:07:31;;;;;;;18.17;11.00;;;2.00;99.90;;;;;;4941318;29;20248;-69
2022/03/10 07:09:58;;;;;;;17.73;11.00;;;2.00;99.90;;;;;;4941803;29;20257;-70
2022/03/10 07:12:27;;;;;;;20.63;13.02;;;2.10;99.90;;;;;;4941202;29;20219;-71
2022/03/10 07:14:55;;;;;;;16.65;10.80;;;2.20;99.90;;;;;;4940899;28;20205;-71
2022/03/10 07:17:27;;;;;;;18.85;11.80;;;2.30;99.90;;;;;;4942484;29;20202;-70
2022/03/10 07:19:55;;;;;;;25.13;12.85;;;2.40;99.90;;;;;;4941579;29;20319;-70
2022/03/10 07:22:23;;;;;;;19.25;12.65;;;2.40;99.90;;;;;;4941753;28;20212;-71
2022/03/10 07:24:51;;;;;;;21.65;11.25;;;2.50;99.90;;;;;;4940552;28;20205;-71
2022/03/10 07:27:19;;;;;;;17.15;11.80;;;2.60;99.90;;;;;;4941671;29;20221;-71
2022/03/10 07:29:47;;;;;;;16.85;11.90;;;2.70;99.90;;;;;;4941195;29;20312;-69
2022/03/10 07:32:15;;;;;;;15.77;10.55;;;2.80;99.90;;;;;;4931460;29;20217;-71
2022/03/10 07:34:47;;;;;;;19.88;12.90;;;2.80;99.90;;;;;;4927902;28;20213;-70
2022/03/10 07:37:15;;;;;;;14.52;11.43;;;3.00;99.90;;;;;;4929590;29;20190;-71
2022/03/10 07:39:43;;;;;;;17.70;11.32;;;3.00;99.90;;;;;;4931340;29;20225;-71
2022/03/10 07:42:11;;;;;;;21.05;12.30;;;3.00;99.90;;;;;;4940520;29;20200;-74
2022/03/10 07:44:39;;;;;;;19.40;12.30;;;3.00;99.90;;;;;;4940753;29;20293;-74
2022/03/10 07:47:07;;;;;;;18.42;12.30;;;3.00;99.90;;;;;;4940775;29;20231;-69
2022/03/10 07:49:35;;;;;;;19.88;12.30;;;3.00;99.90;;;;;;4940589;28;20292;-69
2022/03/10 07:52:04;;;;;;;18.75;11.82;;;3.00;99.90;;;;;;4933333;29;20197;-70
2022/03/10 07:54:32;;;;;;;17.05;11.70;;;3.10;99.90;;;;;;4921801;29;20205;-70
2022/03/10 07:57:00;;;;;;;19.23;12.10;;;3.20;99.90;;;;;;4921600;29;20321;-71
2022/03/10 07:59:28;;;;;;;17.20;12.45;;;3.30;99.90;;;;;;4921444;29;20863;-70
2022/03/10 08:01:56;;;;;;;20.42;11.88;;;3.30;99.90;;;;;;4921841;29;20289;-70
2022/03/10 08:04:24;;;;;;;15.65;11.38;;;3.40;99.90;;;;;;4921390;29;20201;-70
2022/03/10 08:06:52;;;;;;;15.57;11.15;;;3.60;99.90;;;;;;4921754;29;20210;-70
2022/03/10 08:09:22;;;;;;;16.73;11.48;;;3.60;99.90;;;;;;4921996;29;20225;-70
2022/03/10 08:11:49;;;;;;;18.13;12.40;;;3.70;99.90;;;;;;4922295;29;20819;-70
2022/03/10 08:14:17;;;;;;;17.45;11.07;;;3.80;99.90;;;;;;4921932;29;20220;-69
2022/03/10 08:16:45;;;;;;;16.48;10.35;;;3.90;99.90;;;;;;4921553;29;20844;-70
2022/03/10 08:19:13;;;;;;;20.77;11.10;;;4.00;99.90;;;;;;4922563;29;20292;-70
2022/03/10 08:21:41;;;;;;;17.67;10.90;;;4.00;99.90;;;;;;4922348;29;20200;-69
2022/03/10 08:24:11;;;;;;;13.57;11.07;;;4.10;99.90;;;;;;4922529;29;20328;-69
2022/03/10 08:26:41;;;;;;;19.73;11.25;;;4.20;99.90;;;;;;4923969;29;20240;-70
2022/03/10 08:29:09;;;;;;;15.57;11.43;;;4.30;99.90;;;;;;4924973;29;20916;-71
2022/03/10 08:31:37;;;;;;;14.95;11.15;;;4.30;99.90;;;;;;4925366;29;20216;-67
2022/03/10 08:34:04;;;;;;;16.42;10.27;;;4.30;99.90;;;;;;4924972;29;20762;-67
2022/03/10 08:36:32;;;;;;;19.88;13.07;;;4.30;99.90;;;;;;4925291;29;20205;-67
2022/03/10 08:39:00;;;;;;;16.05;11.27;;;4.40;99.90;;;;;;4929571;29;20197;-71
2022/03/10 08:41:28;;;;;;;15.80;10.98;;;4.50;99.90;;;;;;4941899;29;20209;-76
2022/03/10 08:43:57;;;;;;;17.88;11.57;;;4.60;99.90;;;;;;4937261;29;20203;-69
2022/03/10 08:46:25;;;;;;;16.88;11.25;;;4.70;99.90;;;;;;4925338;29;20228;-73
2022/03/10 08:48:53;;;;;;;16.80;10.27;;;4.80;99.90;;;;;;4927456;29;20308;-71
2022/03/10 08:51:21;;;;;;;14.35;10.82;;;4.90;99.90;;;;;;4945574;29;20280;-72
2022/03/10 08:53:49;;;;;;;15.05;11.40;;;5.00;99.90;;;;;;4948844;29;20215;-72
2022/03/10 08:56:16;;;;;;;16.20;10.05;;;5.20;99.90;;;;;;4933939;29;20695;-72
2022/03/10 08:58:44;;;;;;;16.70;10.38;;;5.20;99.90;;;;;;4925144;29;20206;-70
2022/03/10 09:01:13;;;;;;;17.67;10.27;;;5.30;99.90;;;;;;4928430;29;20241;-71
2022/03/10 09:03:51;;;;;;;17.77;10.32;;;5.40;99.90;;;;;;4929257;29;20816;-73
2022/03/10 09:06:19;;;;;;;14.70;10.18;;;5.60;99.90;;;;;;4930127;29;20225;-73
2022/03/10 09:08:48;;;;;;;14.70;10.75;;;5.70;99.90;;;;;;4931516;29;20229;-76
2022/03/10 09:11:17;;;;;;;14.35;9.02;;;5.80;99.90;;;;;;4930975;29;20649;-73
2022/03/10 09:13:48;;;;;;;16.73;11.00;;;6.00;99.90;;;;;;4929270;29;20292;-73
2022/03/10 09:16:19;;;;;;;15.23;10.13;;;6.20;99.90;;;;;;4930140;29;20190;-74
2022/03/10 09:18:50;;;;;;;12.30;9.40;;;6.20;99.90;;;;;;4927820;29;20269;-73
2022/03/10 09:21:19;;;;;;;11.02;8.68;;;6.30;99.90;;;;;;4928791;29;20226;-72
2022/03/10 09:23:47;;;;;;;13.30;9.70;;;6.40;99.90;;;;;;4928258;29;20754;-71
2022/03/10 09:26:15;;;;;;;12.02;9.18;;;6.50;99.90;;;;;;4927955;29;20296;-73
2022/03/10 09:28:43;;;;;;;15.00;10.55;;;6.60;99.90;;;;;;4927507;29;20909;-75
2022/03/10 09:31:18;;;;;;;10.23;8.75;;;6.90;99.90;;;;;;4927854;29;20277;-75
2022/03/10 09:33:46;;;;;;;12.95;9.88;;;6.90;99.90;;;;;;4927930;29;20194;-72
2022/03/10 09:36:15;;;;;;;13.85;9.23;;;7.00;99.90;;;;;;4927097;29;20270;-76
2022/03/10 09:38:43;;;;;;;12.48;9.23;;;7.10;99.90;;;;;;4927977;29;20210;-74
2022/03/10 09:41:11;;;;;;;13.40;9.50;;;7.20;99.90;;;;;;4928053;29;20201;-76
2022/03/10 09:43:40;;;;;;;14.30;10.68;;;7.30;99.90;;;;;;4929251;29;20880;-76
2022/03/10 09:46:09;;;;;;;13.27;9.88;;;7.40;99.90;;;;;;4927863;29;20440;-72
2022/03/10 09:48:40;;;;;;;13.90;9.85;;;7.50;99.90;;;;;;4926988;29;20229;-75
2022/03/10 09:51:09;;;;;;;13.35;9.18;;;7.60;99.90;;;;;;4927575;29;20314;-73
2022/03/10 09:53:38;;;;;;;14.07;9.65;;;7.70;99.90;;;;;;4926591;29;20217;-73
2022/03/10 09:56:07;;;;;;;10.85;8.73;;;7.80;99.90;;;;;;4928300;29;20213;-75
2022/03/10 09:58:34;;;;;;;11.48;8.50;;;7.90;99.90;;;;;;4928139;29;20686;-72
2022/03/10 10:01:06;;;;;;;11.02;8.93;;;8.00;99.90;;;;;;4927201;29;20704;-71
2022/03/10 10:03:35;;;;;;;13.70;9.60;;;8.10;99.90;;;;;;4926979;29;20216;-69
2022/03/10 10:06:07;;;;;;;17.00;10.60;;;8.30;99.90;;;;;;4927049;29;20194;-74
2022/03/10 10:08:38;;;;;;;11.13;9.25;;;8.30;99.90;;;;;;4927706;29;20705;-70
2022/03/10 10:11:06;;;;;;;10.95;8.70;;;8.30;99.90;;;;;;4927566;29;20717;-71
2022/03/10 10:13:37;;;;;;;15.50;9.68;;;8.40;99.90;;;;;;4927167;29;20206;-72
2022/03/10 10:16:08;;;;;;;11.55;8.77;;;8.60;99.90;;;;;;4925894;29;20688;-70
2022/03/10 10:18:37;;;;;;;11.65;8.85;;;8.60;99.90;;;;;;4926323;29;20201;-74
2022/03/10 10:21:18;;;;;;;11.13;8.75;;;8.60;99.90;;;;;;4928014;29;20233;-73
2022/03/10 10:23:47;;;;;;;12.85;9.20;;;8.80;99.90;;;;;;4927748;29;20209;-75
2022/03/10 10:26:15;;;;;;;11.63;9.00;;;8.80;99.90;;;;;;4932374;29;20296;-73
2022/03/10 10:28:48;;;;;;;11.70;8.52;;;9.00;99.90;;;;;;4943891;29;20276;-73
2022/03/10 10:31:17;;;;;;;11.98;9.25;;;9.10;99.90;;;;;;4936008;28;20205;-73
2022/03/10 10:33:57;;;;;;;13.10;9.80;;;9.30;99.90;;;;;;4943072;28;20211;-73
2022/03/10 10:36:29;;;;;;;14.95;9.95;;;9.30;99.90;;;;;;4926174;29;20840;-72
2022/03/10 10:39:07;;;;;;;16.35;8.90;;;9.30;99.90;;;;;;4923519;29;20194;-74
2022/03/10 10:41:35;;;;;;;13.93;10.10;;;9.30;99.90;;;;;;4924348;29;20214;-75
2022/03/10 10:44:06;;;;;;;12.65;8.23;;;9.40;99.90;;;;;;4926268;29;20646;-74
2022/03/10 10:46:37;;;;;;;14.80;8.80;;;9.40;99.90;;;;;;4942019;28;20810;-72
2022/03/10 10:49:07;;;;;;;13.73;9.15;;;9.40;99.90;;;;;;4941352;28;20216;-74
2022/03/10 10:51:43;;;;;;;14.75;8.93;;;9.40;99.90;;;;;;4926050;29;20292;-72
2022/03/10 10:54:24;;;;;;;10.50;8.73;;;9.40;99.90;;;;;;4932707;29;20201;-77
2022/03/10 10:56:54;;;;;;;10.18;7.63;;;9.30;99.90;;;;;;4920318;29;20210;-76
2022/03/10 10:59:29;;;;;;;10.38;8.20;;;9.40;99.90;;;;;;4922305;29;20226;-72
2022/03/10 11:02:08;;;;;;;12.27;8.98;;;9.50;99.90;;;;;;4920016;29;20292;-74
2022/03/10 11:04:37;;;;;;;11.50;7.70;;;9.50;99.90;;;;;;4921434;29;20300;-73
2022/03/10 11:07:08;;;;;;;10.88;7.60;;;9.50;99.90;;;;;;4922678;29;20216;-73
2022/03/10 11:09:37;;;;;;;13.27;8.57;;;9.60;99.90;;;;;;4922017;29;20301;-73
2022/03/10 11:12:14;;;;;;;10.82;8.68;;;9.60;99.90;;;;;;5053437;28;20579;-71
2022/03/10 11:14:44;;;;;;;12.80;9.27;;;9.80;99.90;;;;;;5053008;28;20223;-72
2022/03/10 11:17:13;;;;;;;15.02;9.60;;;9.80;99.90;;;;;;5053279;28;20211;-71
2022/03/10 11:19:44;;;;;;;8.57;7.68;;;9.90;99.90;;;;;;5052856;28;20330;-71
2022/03/10 11:22:26;;;;;;;14.05;9.23;;;9.90;99.90;;;;;;5053944;27;20284;-72
2022/03/10 11:25:16;;;;;;;12.35;8.80;;;10.10;99.90;;;;;;5053969;28;20723;-76
2022/03/10 11:27:52;;;;;;;11.52;8.75;;;10.20;99.90;;;;;;5045109;28;20185;-74
2022/03/10 11:30:24;;;;;;;10.82;8.77;;;10.40;99.90;;;;;;5034704;27;20220;-72
2022/03/10 11:33:03;;;;;;;12.40;9.02;;;10.50;99.90;;;;;;5037938;27;20693;-74
2022/03/10 11:35:37;;;;;;;12.43;9.57;;;10.60;99.90;;;;;;5043924;28;20198;-74
2022/03/10 11:38:08;;;;;;;13.13;9.90;;;10.70;99.90;;;;;;5038888;28;20460;-75
2022/03/10 11:40:47;;;;;;;9.73;8.67;;;10.80;99.90;;;;;;5038730;28;20457;-75
2022/03/10 11:43:31;;;;;;;16.13;9.77;;;10.90;99.90;;;;;;5037217;27;20571;-74
2022/03/10 11:46:21;;;;;;;11.93;9.67;;;11.00;99.90;;;;;;5035093;28;20447;-73
2022/03/10 11:49:06;;;;;;;13.53;10.97;;;11.10;99.90;;;;;;5044110;27;20463;-72
2022/03/10 11:51:43;;;;;;;11.00;8.80;;;11.10;99.90;;;;;;5049218;28;20494;-76
2022/03/10 11:54:20;;;;;;;11.43;9.03;;;11.20;99.90;;;;;;5034794;27;20452;-75
2022/03/10 11:57:03;;;;;;;9.33;7.90;;;11.20;99.90;;;;;;5038773;28;20440;-77
2022/03/10 11:59:49;;;;;;;13.37;10.80;;;11.30;99.90;;;;;;5031349;27;20472;-72
2022/03/10 12:02:31;;;;;;;14.47;9.50;;;11.30;99.90;;;;;;5034437;28;20451;-72
2022/03/10 12:05:00;;;;;;;10.97;9.10;;;11.30;99.90;;;;;;5044129;28;20427;-72
2022/03/10 12:07:29;;;;;;;11.30;9.00;;;11.40;99.90;;;;;;5043126;27;20519;-72
2022/03/10 12:10:04;;;;;;;13.83;8.37;;;11.40;99.50;;;;;;5041356;28;20457;-73
2022/03/10 12:12:38;;;;;;;9.53;8.20;;;11.50;99.50;;;;;;5043004;27;20491;-72
2022/03/10 12:15:51;;;;;;;8.80;7.90;;;11.50;99.40;;;;;;5031719;28;21012;-72
2022/03/10 12:18:41;;;;;;;10.20;7.60;;;11.60;98.50;;;;;;5039905;28;20537;-72
2022/03/10 12:21:23;;;;;;;9.60;7.73;;;11.60;97.70;;;;;;5040052;27;20543;-72
2022/03/10 12:23:56;;;;;;;11.40;9.07;;;11.60;97.80;;;;;;5029155;27;20433;-71
2022/03/10 12:26:32;;;;;;;10.77;8.67;;;11.60;97.90;;;;;;5027255;28;20462;-74
2022/03/10 12:29:02;;;;;;;11.80;10.17;;;11.70;98.10;;;;;;5032417;27;20444;-70
2022/03/10 12:31:35;;;;;;;11.80;9.97;;;11.70;98.30;;;;;;5030762;28;20469;-70
2022/03/10 12:34:09;;;;;;;12.23;9.67;;;11.70;98.50;;;;;;5028585;27;20458;-70
2022/03/10 12:36:38;;;;;;;12.80;10.33;;;11.80;98.40;;;;;;5028680;28;20524;-72
2022/03/10 12:39:10;;;;;;;13.83;10.00;;;11.90;98.00;;;;;;5029575;27;20500;-70
2022/03/10 12:41:39;;;;;;;12.13;9.70;;;11.90;98.00;;;;;;5029595;28;20517;-73
2022/03/10 12:44:08;;;;;;;11.33;9.10;;;11.90;97.90;;;;;;5029626;28;20436;-70
2022/03/10 12:46:39;;;;;;;14.30;9.40;;;11.90;98.00;;;;;;5024220;28;20951;-71
2022/03/10 12:49:12;;;;;;;16.93;10.57;;;12.00;97.60;;;;;;5019132;28;20461;-71
2022/03/10 12:51:41;;;;;;;12.73;10.40;;;12.10;97.20;;;;;;5030147;28;21056;-72
2022/03/10 12:54:09;;;;;;;10.23;9.07;;;12.10;97.20;;;;;;5030335;28;20421;-72
2022/03/10 12:56:46;;;;;;;12.27;9.40;;;12.10;97.30;;;;;;5030318;28;20436;-72
2022/03/10 12:59:15;;;;;;;13.10;10.00;;;12.10;96.90;;;;;;5029033;28;20452;-73
2022/03/10 13:01:51;;;;;;;11.90;9.40;;;12.20;96.50;;;;;;5028185;28;20540;-74